sensor_id;sensor_type;location;lat;lon;timestamp;pressure;altitude;pressure_sealevel;temperature;humidity
40794;BME280;26502;51.886;15.604;2024-02-26T00:02:22;99615.41;;;0.96;70.40
40794;BME280;26502;51.886;15.604;2024-02-26T00:07:48;99624.14;;;0.96;70.26
40794;BME280;26502;51.886;15.604;2024-02-26T00:13:14;99626.80;;;0.94;70.34
40794;BME280;26502;51.886;15.604;2024-02-26T00:18:40;99627.02;;;0.88;70.32
40794;BME280;26502;51.886;15.604;2024-02-26T00:24:07;99634.25;;;0.62;70.07
40794;BME280;26502;51.886;15.604;2024-02-26T00:29:33;99635.34;;;0.35;70.24
40794;BME280;26502;51.886;15.604;2024-02-26T00:34:59;99634.45;;;0.38;70.72
40794;BME280;26502;51.886;15.604;2024-02-26T00:40:25;99639.60;;;0.49;70.74
40794;BME280;26502;51.886;15.604;2024-02-26T00:45:51;99652.71;;;0.48;70.65
40794;BME280;26502;51.886;15.604;2024-02-26T00:51:16;99653.86;;;0.35;70.63
40794;BME280;26502;51.886;15.604;2024-02-26T00:56:42;99642.64;;;0.42;71.08
40794;BME280;26502;51.886;15.604;2024-02-26T01:02:08;99635.04;;;0.53;71.03
40794;BME280;26502;51.886;15.604;2024-02-26T01:07:35;99630.14;;;0.53;71.13
40794;BME280;26502;51.886;15.604;2024-02-26T01:13:00;99618.95;;;0.52;71.11
40794;BME280;26502;51.886;15.604;2024-02-26T01:18:26;99618.77;;;0.54;71.13
40794;BME280;26502;51.886;15.604;2024-02-26T01:23:52;99623.70;;;0.50;71.26
40794;BME280;26502;51.886;15.604;2024-02-26T01:29:18;99615.95;;;0.36;71.27
40794;BME280;26502;51.886;15.604;2024-02-26T01:34:44;99611.44;;;0.33;71.25
40794;BME280;26502;51.886;15.604;2024-02-26T01:40:14;99604.63;;;0.32;71.41
40794;BME280;26502;51.886;15.604;2024-02-26T01:45:42;99598.88;;;0.30;71.39
40794;BME280;26502;51.886;15.604;2024-02-26T01:51:08;99599.74;;;0.32;71.39
40794;BME280;26502;51.886;15.604;2024-02-26T01:56:36;99595.36;;;0.34;71.37
40794;BME280;26502;51.886;15.604;2024-02-26T02:02:05;99598.34;;;0.32;71.33
40794;BME280;26502;51.886;15.604;2024-02-26T02:07:32;99601.91;;;0.23;71.34
40794;BME280;26502;51.886;15.604;2024-02-26T02:12:58;99597.31;;;0.28;71.41
40794;BME280;26502;51.886;15.604;2024-02-26T02:18:24;99596.99;;;0.25;71.15
40794;BME280;26502;51.886;15.604;2024-02-26T02:23:50;99598.16;;;0.08;71.26
40794;BME280;26502;51.886;15.604;2024-02-26T02:29:16;99600.38;;;-0.08;71.35
40794;BME280;26502;51.886;15.604;2024-02-26T02:34:42;99601.96;;;-0.10;71.53
40794;BME280;26502;51.886;15.604;2024-02-26T02:40:11;99597.94;;;-0.09;71.69
40794;BME280;26502;51.886;15.604;2024-02-26T02:45:38;99596.34;;;-0.04;71.65
40794;BME280;26502;51.886;15.604;2024-02-26T02:51:04;99593.38;;;-0.05;71.82
40794;BME280;26502;51.886;15.604;2024-02-26T02:56:30;99595.11;;;-0.02;72.04
40794;BME280;26502;51.886;15.604;2024-02-26T03:01:56;99594.01;;;0.05;72.01
40794;BME280;26502;51.886;15.604;2024-02-26T03:07:22;99595.56;;;0.07;72.06
40794;BME280;26502;51.886;15.604;2024-02-26T03:12:49;99599.99;;;-0.03;71.92
40794;BME280;26502;51.886;15.604;2024-02-26T03:18:15;99604.19;;;-0.05;71.97
40794;BME280;26502;51.886;15.604;2024-02-26T03:23:41;99602.83;;;-0.08;72.10
40794;BME280;26502;51.886;15.604;2024-02-26T03:29:06;99604.98;;;-0.20;72.26
40794;BME280;26502;51.886;15.604;2024-02-26T03:34:33;99594.73;;;-0.25;72.29
40794;BME280;26502;51.886;15.604;2024-02-26T03:40:00;99588.10;;;-0.26;72.47
40794;BME280;26502;51.886;15.604;2024-02-26T03:45:25;99591.44;;;-0.29;72.39
40794;BME280;26502;51.886;15.604;2024-02-26T03:50:52;99588.16;;;-0.37;72.51
40794;BME280;26502;51.886;15.604;2024-02-26T03:56:18;99586.98;;;-0.43;72.57
40794;BME280;26502;51.886;15.604;2024-02-26T04:01:47;99588.20;;;-0.47;72.78
40794;BME280;26502;51.886;15.604;2024-02-26T04:07:14;99595.36;;;-0.47;72.90
40794;BME280;26502;51.886;15.604;2024-02-26T04:12:41;99603.90;;;-0.44;72.93
40794;BME280;26502;51.886;15.604;2024-02-26T04:18:07;99596.06;;;-0.45;72.98
40794;BME280;26502;51.886;15.604;2024-02-26T04:23:33;99594.66;;;-0.47;72.95
40794;BME280;26502;51.886;15.604;2024-02-26T04:28:59;99596.59;;;-0.46;72.98
40794;BME280;26502;51.886;15.604;2024-02-26T04:34:27;99593.60;;;-0.43;73.03
40794;BME280;26502;51.886;15.604;2024-02-26T04:39:52;99590.28;;;-0.40;73.29
40794;BME280;26502;51.886;15.604;2024-02-26T04:45:18;99589.36;;;-0.36;73.43
40794;BME280;26502;51.886;15.604;2024-02-26T04:50:44;99590.21;;;-0.30;73.55
40794;BME280;26502;51.886;15.604;2024-02-26T04:56:10;99591.98;;;-0.35;73.57
40794;BME280;26502;51.886;15.604;2024-02-26T05:01:37;99598.25;;;-0.34;73.44
40794;BME280;26502;51.886;15.604;2024-02-26T05:07:04;99600.55;;;-0.39;73.28
40794;BME280;26502;51.886;15.604;2024-02-26T05:12:30;99608.94;;;-0.40;73.45
40794;BME280;26502;51.886;15.604;2024-02-26T05:17:56;99609.12;;;-0.41;73.29
40794;BME280;26502;51.886;15.604;2024-02-26T05:23:22;99612.23;;;-0.39;73.22
40794;BME280;26502;51.886;15.604;2024-02-26T05:28:49;99611.73;;;-0.39;73.22
40794;BME280;26502;51.886;15.604;2024-02-26T05:34:15;99615.56;;;-0.41;73.36
40794;BME280;26502;51.886;15.604;2024-02-26T05:39:41;99619.07;;;-0.45;73.60
40794;BME280;26502;51.886;15.604;2024-02-26T05:45:08;99620.84;;;-0.48;73.58
40794;BME280;26502;51.886;15.604;2024-02-26T05:50:34;99623.98;;;-0.49;73.85
40794;BME280;26502;51.886;15.604;2024-02-26T05:56:01;99620.84;;;-0.49;73.95
40794;BME280;26502;51.886;15.604;2024-02-26T06:01:26;99622.04;;;-0.44;74.11
40794;BME280;26502;51.886;15.604;2024-02-26T06:06:52;99624.65;;;-0.44;74.00
40794;BME280;26502;51.886;15.604;2024-02-26T06:12:18;99622.73;;;-0.40;74.35
40794;BME280;26502;51.886;15.604;2024-02-26T06:17:44;99628.78;;;-0.31;74.75
40794;BME280;26502;51.886;15.604;2024-02-26T06:23:10;99640.59;;;-0.22;74.54
40794;BME280;26502;51.886;15.604;2024-02-26T06:28:36;99648.08;;;-0.17;74.53
40794;BME280;26502;51.886;15.604;2024-02-26T06:34:05;99646.13;;;-0.12;74.48
40794;BME280;26502;51.886;15.604;2024-02-26T06:39:30;99641.93;;;-0.11;74.44
40794;BME280;26502;51.886;15.604;2024-02-26T06:44:57;99640.35;;;-0.09;74.62
40794;BME280;26502;51.886;15.604;2024-02-26T06:50:23;99637.52;;;-0.03;74.97
40794;BME280;26502;51.886;15.604;2024-02-26T06:55:49;99637.79;;;0.11;75.70
40794;BME280;26502;51.886;15.604;2024-02-26T07:01:15;99638.59;;;0.21;75.96
40794;BME280;26502;51.886;15.604;2024-02-26T07:06:41;99643.55;;;0.36;76.31
40794;BME280;26502;51.886;15.604;2024-02-26T07:12:09;99653.59;;;0.49;76.48
40794;BME280;26502;51.886;15.604;2024-02-26T07:17:36;99656.09;;;0.63;76.67
40794;BME280;26502;51.886;15.604;2024-02-26T07:23:01;99660.33;;;0.79;76.75
40794;BME280;26502;51.886;15.604;2024-02-26T07:28:30;99660.15;;;0.97;76.86
40794;BME280;26502;51.886;15.604;2024-02-26T07:33:55;99660.50;;;1.15;76.84
40794;BME280;26502;51.886;15.604;2024-02-26T07:39:24;99656.98;;;1.33;77.03
40794;BME280;26502;51.886;15.604;2024-02-26T07:44:50;99654.35;;;1.49;77.03
40794;BME280;26502;51.886;15.604;2024-02-26T07:50:17;99652.65;;;1.74;77.17
40794;BME280;26502;51.886;15.604;2024-02-26T07:55:44;99651.80;;;1.98;77.11
40794;BME280;26502;51.886;15.604;2024-02-26T08:01:10;99653.52;;;2.24;77.19
40794;BME280;26502;51.886;15.604;2024-02-26T08:06:38;99667.04;;;2.46;77.32
40794;BME280;26502;51.886;15.604;2024-02-26T08:12:05;99670.80;;;2.73;77.34
40794;BME280;26502;51.886;15.604;2024-02-26T08:17:31;99670.55;;;2.99;77.39
40794;BME280;26502;51.886;15.604;2024-02-26T08:22:57;99673.07;;;3.24;77.28
40794;BME280;26502;51.886;15.604;2024-02-26T08:28:23;99671.92;;;3.47;77.25
40794;BME280;26502;51.886;15.604;2024-02-26T08:33:49;99669.52;;;3.62;77.27
40794;BME280;26502;51.886;15.604;2024-02-26T08:39:15;99661.73;;;3.82;77.32
40794;BME280;26502;51.886;15.604;2024-02-26T08:44:42;99655.94;;;4.07;77.41
40794;BME280;26502;51.886;15.604;2024-02-26T08:50:08;99659.73;;;4.26;77.23
40794;BME280;26502;51.886;15.604;2024-02-26T08:55:36;99663.79;;;4.41;77.14
40794;BME280;26502;51.886;15.604;2024-02-26T09:01:02;99667.35;;;4.61;77.14
40794;BME280;26502;51.886;15.604;2024-02-26T09:06:29;99662.64;;;4.81;77.12
40794;BME280;26502;51.886;15.604;2024-02-26T09:11:55;99662.36;;;4.98;77.07
40794;BME280;26502;51.886;15.604;2024-02-26T09:17:21;99654.75;;;5.21;77.10
40794;BME280;26502;51.886;15.604;2024-02-26T09:22:49;99643.19;;;5.38;77.02
40794;BME280;26502;51.886;15.604;2024-02-26T09:28:15;99645.90;;;5.54;76.89
40794;BME280;26502;51.886;15.604;2024-02-26T09:33:41;99644.73;;;5.71;76.84
40794;BME280;26502;51.886;15.604;2024-02-26T09:39:08;99646.14;;;6.01;77.04
40794;BME280;26502;51.886;15.604;2024-02-26T09:44:37;99646.55;;;6.23;76.98
40794;BME280;26502;51.886;15.604;2024-02-26T09:50:10;99651.42;;;6.48;76.84
40794;BME280;26502;51.886;15.604;2024-02-26T09:55:38;99649.34;;;6.74;76.64
40794;BME280;26502;51.886;15.604;2024-02-26T10:01:10;99653.48;;;6.92;76.44
40794;BME280;26502;51.886;15.604;2024-02-26T10:06:37;99655.92;;;7.09;76.32
40794;BME280;26502;51.886;15.604;2024-02-26T10:12:04;99657.39;;;7.18;76.06
40794;BME280;26502;51.886;15.604;2024-02-26T10:17:32;99659.77;;;7.35;76.04
40794;BME280;26502;51.886;15.604;2024-02-26T10:23:04;99660.23;;;7.67;76.16
40794;BME280;26502;51.886;15.604;2024-02-26T10:28:32;99661.00;;;7.94;75.94
40794;BME280;26502;51.886;15.604;2024-02-26T10:33:59;99661.73;;;8.21;75.66
40794;BME280;26502;51.886;15.604;2024-02-26T10:39:27;99661.83;;;8.41;75.34
40794;BME280;26502;51.886;15.604;2024-02-26T10:44:53;99653.87;;;8.63;75.17
40794;BME280;26502;51.886;15.604;2024-02-26T10:50:21;99646.77;;;8.90;75.01
40794;BME280;26502;51.886;15.604;2024-02-26T10:55:52;99644.57;;;9.04;74.65
40794;BME280;26502;51.886;15.604;2024-02-26T11:01:20;99636.16;;;9.19;74.41
40794;BME280;26502;51.886;15.604;2024-02-26T11:06:47;99632.33;;;9.33;74.27
40794;BME280;26502;51.886;15.604;2024-02-26T11:12:17;99630.58;;;9.57;74.14
40794;BME280;26502;51.886;15.604;2024-02-26T11:17:44;99629.18;;;9.80;73.98
40794;BME280;26502;51.886;15.604;2024-02-26T11:23:11;99622.39;;;10.00;73.60
40794;BME280;26502;51.886;15.604;2024-02-26T11:28:38;99619.23;;;10.11;73.33
40794;BME280;26502;51.886;15.604;2024-02-26T11:34:05;99629.63;;;10.31;73.30
40794;BME280;26502;51.886;15.604;2024-02-26T11:39:33;99633.63;;;10.59;73.22
40794;BME280;26502;51.886;15.604;2024-02-26T11:45:00;99630.96;;;10.70;72.75
40794;BME280;26502;51.886;15.604;2024-02-26T11:50:36;99626.69;;;10.88;72.66
40794;BME280;26502;51.886;15.604;2024-02-26T11:56:23;99626.98;;;11.10;72.34
40794;BME280;26502;51.886;15.604;2024-02-26T12:01:51;99625.73;;;11.24;71.96
40794;BME280;26502;51.886;15.604;2024-02-26T12:07:18;99620.21;;;11.38;71.74
40794;BME280;26502;51.886;15.604;2024-02-26T12:12:44;99612.41;;;11.58;71.64
40794;BME280;26502;51.886;15.604;2024-02-26T12:18:15;99621.64;;;11.68;71.41
40794;BME280;26502;51.886;15.604;2024-02-26T12:23:42;99621.55;;;11.63;70.73
40794;BME280;26502;51.886;15.604;2024-02-26T12:29:08;99623.45;;;11.61;70.50
40794;BME280;26502;51.886;15.604;2024-02-26T12:34:35;99620.13;;;11.70;70.45
40794;BME280;26502;51.886;15.604;2024-02-26T12:40:01;99622.98;;;11.69;69.94
40794;BME280;26502;51.886;15.604;2024-02-26T12:45:27;99620.39;;;11.88;69.76
40794;BME280;26502;51.886;15.604;2024-02-26T12:50:53;99619.91;;;12.07;69.50
40794;BME280;26502;51.886;15.604;2024-02-26T12:56:21;99625.23;;;12.23;69.34
40794;BME280;26502;51.886;15.604;2024-02-26T13:01:48;99627.13;;;12.34;68.68
40794;BME280;26502;51.886;15.604;2024-02-26T13:07:13;99631.91;;;12.25;68.55
40794;BME280;26502;51.886;15.604;2024-02-26T13:12:44;99635.42;;;12.13;68.29
40794;BME280;26502;51.886;15.604;2024-02-26T13:18:14;99638.14;;;11.99;68.23
40794;BME280;26502;51.886;15.604;2024-02-26T13:23:41;99639.94;;;11.95;68.02
40794;BME280;26502;51.886;15.604;2024-02-26T13:29:09;99643.79;;;11.93;67.88
40794;BME280;26502;51.886;15.604;2024-02-26T13:34:41;99643.82;;;11.96;67.94
40794;BME280;26502;51.886;15.604;2024-02-26T13:40:09;99643.77;;;11.97;67.64
40794;BME280;26502;51.886;15.604;2024-02-26T13:45:37;99644.38;;;12.02;67.73
40794;BME280;26502;51.886;15.604;2024-02-26T13:51:04;99654.69;;;12.06;67.62
40794;BME280;26502;51.886;15.604;2024-02-26T13:56:30;99659.27;;;12.03;67.61
40794;BME280;26502;51.886;15.604;2024-02-26T14:01:56;99656.14;;;12.05;67.70
40794;BME280;26502;51.886;15.604;2024-02-26T14:07:21;99655.31;;;12.04;67.49
40794;BME280;26502;51.886;15.604;2024-02-26T14:12:47;99659.23;;;11.90;67.21
40794;BME280;26502;51.886;15.604;2024-02-26T14:18:13;99664.45;;;11.82;67.19
40794;BME280;26502;51.886;15.604;2024-02-26T14:23:40;99665.02;;;11.75;67.31
40794;BME280;26502;51.886;15.604;2024-02-26T14:29:07;99663.23;;;11.65;67.30
40794;BME280;26502;51.886;15.604;2024-02-26T14:34:33;99670.05;;;11.47;67.36
40794;BME280;26502;51.886;15.604;2024-02-26T14:39:59;99674.67;;;11.40;67.60
40794;BME280;26502;51.886;15.604;2024-02-26T14:45:25;99672.45;;;11.42;67.69
40794;BME280;26502;51.886;15.604;2024-02-26T14:50:51;99670.19;;;11.41;67.65
40794;BME280;26502;51.886;15.604;2024-02-26T14:56:17;99674.46;;;11.30;67.85
40794;BME280;26502;51.886;15.604;2024-02-26T15:01:43;99678.89;;;11.20;67.91
40794;BME280;26502;51.886;15.604;2024-02-26T15:07:10;99690.66;;;11.12;67.87
40794;BME280;26502;51.886;15.604;2024-02-26T15:12:36;99691.55;;;11.02;68.06
40794;BME280;26502;51.886;15.604;2024-02-26T15:18:03;99697.90;;;10.95;68.38
40794;BME280;26502;51.886;15.604;2024-02-26T15:23:29;99700.25;;;10.88;68.30
40794;BME280;26502;51.886;15.604;2024-02-26T15:28:54;99707.10;;;10.85;68.44
40794;BME280;26502;51.886;15.604;2024-02-26T15:34:20;99712.80;;;10.78;68.43
40794;BME280;26502;51.886;15.604;2024-02-26T15:39:46;99717.66;;;10.69;68.54
40794;BME280;26502;51.886;15.604;2024-02-26T15:45:12;99724.02;;;10.66;68.64
40794;BME280;26502;51.886;15.604;2024-02-26T15:50:38;99730.82;;;10.58;68.55
40794;BME280;26502;51.886;15.604;2024-02-26T15:56:07;99731.58;;;10.49;68.97
40794;BME280;26502;51.886;15.604;2024-02-26T16:01:33;99727.10;;;10.42;69.07
40794;BME280;26502;51.886;15.604;2024-02-26T16:07:01;99727.71;;;10.32;69.23
40794;BME280;26502;51.886;15.604;2024-02-26T16:12:34;99730.53;;;10.21;69.40
40794;BME280;26502;51.886;15.604;2024-02-26T16:18:01;99734.98;;;10.17;69.70
40794;BME280;26502;51.886;15.604;2024-02-26T16:23:27;99738.73;;;10.08;69.77
40794;BME280;26502;51.886;15.604;2024-02-26T16:28:53;99754.37;;;10.00;69.79
40794;BME280;26502;51.886;15.604;2024-02-26T16:34:19;99755.96;;;9.88;69.96
40794;BME280;26502;51.886;15.604;2024-02-26T16:39:45;99761.15;;;9.79;70.21
40794;BME280;26502;51.886;15.604;2024-02-26T16:45:11;99764.75;;;9.70;70.23
40794;BME280;26502;51.886;15.604;2024-02-26T16:50:37;99769.89;;;9.57;70.53
40794;BME280;26502;51.886;15.604;2024-02-26T16:56:03;99773.17;;;9.51;70.69
40794;BME280;26502;51.886;15.604;2024-02-26T17:01:29;99776.11;;;9.44;70.90
40794;BME280;26502;51.886;15.604;2024-02-26T17:06:54;99781.10;;;9.35;70.85
40794;BME280;26502;51.886;15.604;2024-02-26T17:12:20;99784.61;;;9.27;71.12
40794;BME280;26502;51.886;15.604;2024-02-26T17:17:47;99788.38;;;9.22;71.28
40794;BME280;26502;51.886;15.604;2024-02-26T17:23:15;99792.46;;;9.17;71.52
40794;BME280;26502;51.886;15.604;2024-02-26T17:28:41;99801.42;;;9.10;71.70
40794;BME280;26502;51.886;15.604;2024-02-26T17:34:07;99806.14;;;9.03;71.82
40794;BME280;26502;51.886;15.604;2024-02-26T17:39:33;99812.89;;;9.07;72.22
40794;BME280;26502;51.886;15.604;2024-02-26T17:44:59;99815.05;;;9.06;72.12
40794;BME280;26502;51.886;15.604;2024-02-26T17:50:25;99820.76;;;9.05;72.39
40794;BME280;26502;51.886;15.604;2024-02-26T17:55:51;99816.90;;;9.13;72.60
40794;BME280;26502;51.886;15.604;2024-02-26T18:01:17;99822.98;;;9.16;72.59
40794;BME280;26502;51.886;15.604;2024-02-26T18:06:43;99824.73;;;9.16;72.77
40794;BME280;26502;51.886;15.604;2024-02-26T18:12:10;99830.63;;;9.15;72.74
40794;BME280;26502;51.886;15.604;2024-02-26T18:17:43;99832.28;;;9.14;72.97
40794;BME280;26502;51.886;15.604;2024-02-26T18:23:28;99838.12;;;9.14;72.93
40794;BME280;26502;51.886;15.604;2024-02-26T18:28:55;99840.39;;;9.10;72.89
40794;BME280;26502;51.886;15.604;2024-02-26T18:34:21;99842.14;;;9.06;73.12
40794;BME280;26502;51.886;15.604;2024-02-26T18:39:49;99835.41;;;9.06;73.00
40794;BME280;26502;51.886;15.604;2024-02-26T18:45:14;99843.10;;;9.04;73.11
40794;BME280;26502;51.886;15.604;2024-02-26T18:50:40;99844.86;;;8.96;73.15
40794;BME280;26502;51.886;15.604;2024-02-26T18:56:07;99850.95;;;8.89;73.28
40794;BME280;26502;51.886;15.604;2024-02-26T19:01:33;99860.48;;;8.85;73.45
40794;BME280;26502;51.886;15.604;2024-02-26T19:07:00;99868.46;;;8.85;73.27
40794;BME280;26502;51.886;15.604;2024-02-26T19:12:26;99875.26;;;8.79;73.42
40794;BME280;26502;51.886;15.604;2024-02-26T19:17:52;99875.38;;;8.76;73.58
40794;BME280;26502;51.886;15.604;2024-02-26T19:23:18;99873.69;;;8.69;73.55
40794;BME280;26502;51.886;15.604;2024-02-26T19:28:43;99868.20;;;8.59;73.63
40794;BME280;26502;51.886;15.604;2024-02-26T19:34:10;99870.50;;;8.54;73.78
40794;BME280;26502;51.886;15.604;2024-02-26T19:39:36;99872.67;;;8.53;73.93
40794;BME280;26502;51.886;15.604;2024-02-26T19:45:02;99876.63;;;8.46;73.96
40794;BME280;26502;51.886;15.604;2024-02-26T19:50:29;99880.28;;;8.37;74.01
40794;BME280;26502;51.886;15.604;2024-02-26T19:55:55;99877.77;;;8.29;74.07
40794;BME280;26502;51.886;15.604;2024-02-26T20:01:21;99875.67;;;8.23;74.21
40794;BME280;26502;51.886;15.604;2024-02-26T20:06:47;99866.84;;;8.22;74.37
40794;BME280;26502;51.886;15.604;2024-02-26T20:12:13;99859.30;;;8.20;74.40
40794;BME280;26502;51.886;15.604;2024-02-26T20:17:42;99857.95;;;8.14;74.51
40794;BME280;26502;51.886;15.604;2024-02-26T20:23:08;99855.96;;;8.05;74.55
40794;BME280;26502;51.886;15.604;2024-02-26T20:28:34;99857.38;;;7.95;74.63
40794;BME280;26502;51.886;15.604;2024-02-26T20:34:00;99862.84;;;7.90;74.75
40794;BME280;26502;51.886;15.604;2024-02-26T20:39:27;99871.26;;;7.87;74.83
40794;BME280;26502;51.886;15.604;2024-02-26T20:44:54;99872.02;;;7.80;74.90
40794;BME280;26502;51.886;15.604;2024-02-26T20:50:21;99872.84;;;7.71;75.03
40794;BME280;26502;51.886;15.604;2024-02-26T20:55:47;99877.11;;;7.65;75.12
40794;BME280;26502;51.886;15.604;2024-02-26T21:01:13;99887.05;;;7.53;75.04
40794;BME280;26502;51.886;15.604;2024-02-26T21:06:38;99884.71;;;7.43;75.17
40794;BME280;26502;51.886;15.604;2024-02-26T21:12:06;99889.02;;;7.35;75.34
40794;BME280;26502;51.886;15.604;2024-02-26T21:17:33;99893.77;;;7.31;75.28
40794;BME280;26502;51.886;15.604;2024-02-26T21:22:59;99903.21;;;7.28;75.38
40794;BME280;26502;51.886;15.604;2024-02-26T21:28:26;99913.08;;;7.18;75.48
40794;BME280;26502;51.886;15.604;2024-02-26T21:33:51;99922.02;;;7.08;75.45
40794;BME280;26502;51.886;15.604;2024-02-26T21:39:17;99929.62;;;6.95;75.47
40794;BME280;26502;51.886;15.604;2024-02-26T21:44:43;99935.89;;;6.86;75.47
40794;BME280;26502;51.886;15.604;2024-02-26T21:50:11;99946.54;;;6.78;75.65
40794;BME280;26502;51.886;15.604;2024-02-26T21:55:37;99956.54;;;6.68;75.80
40794;BME280;26502;51.886;15.604;2024-02-26T22:01:03;99967.05;;;6.59;75.91
40794;BME280;26502;51.886;15.604;2024-02-26T22:06:29;99970.00;;;6.40;75.89
40794;BME280;26502;51.886;15.604;2024-02-26T22:11:57;99972.73;;;6.30;76.11
40794;BME280;26502;51.886;15.604;2024-02-26T22:17:23;99971.97;;;6.25;76.28
40794;BME280;26502;51.886;15.604;2024-02-26T22:22:49;99974.80;;;6.18;76.13
40794;BME280;26502;51.886;15.604;2024-02-26T22:28:15;99975.14;;;6.18;76.07
40794;BME280;26502;51.886;15.604;2024-02-26T22:33:40;99980.20;;;6.21;76.20
40794;BME280;26502;51.886;15.604;2024-02-26T22:39:06;99984.60;;;6.14;75.91
40794;BME280;26502;51.886;15.604;2024-02-26T22:44:32;99991.05;;;6.10;75.68
40794;BME280;26502;51.886;15.604;2024-02-26T22:49:58;99990.56;;;6.08;75.47
40794;BME280;26502;51.886;15.604;2024-02-26T22:55:24;99995.20;;;5.98;75.31
40794;BME280;26502;51.886;15.604;2024-02-26T23:00:50;99998.73;;;5.75;75.40
40794;BME280;26502;51.886;15.604;2024-02-26T23:06:16;100010.61;;;5.48;75.62
40794;BME280;26502;51.886;15.604;2024-02-26T23:11:41;100013.79;;;5.23;75.80
40794;BME280;26502;51.886;15.604;2024-02-26T23:17:07;100012.45;;;5.12;76.05
40794;BME280;26502;51.886;15.604;2024-02-26T23:22:33;100024.59;;;4.95;76.04
40794;BME280;26502;51.886;15.604;2024-02-26T23:27:59;100029.69;;;4.86;76.40
40794;BME280;26502;51.886;15.604;2024-02-26T23:33:25;100034.33;;;4.91;76.32
40794;BME280;26502;51.886;15.604;2024-02-26T23:38:50;100033.80;;;4.82;76.28
40794;BME280;26502;51.886;15.604;2024-02-26T23:44:18;100043.61;;;4.75;76.65
40794;BME280;26502;51.886;15.604;2024-02-26T23:49:44;100047.55;;;4.80;76.84
40794;BME280;26502;51.886;15.604;2024-02-26T23:55:09;100052.42;;;4.84;76.85
